Time;durP1;ratioP1;P1;durP2;ratioP2;P2;SDS_P1;SDS_P2;PMS_P1;PMS_P2;Temp;Humidity;BMP_temperature;BMP_pressure;BME280_temperature;BME280_humidity;BME280_pressure;Samples;Min_cycle;Max_cycle;Signal;HPM_P1;HPM_P2
2022/07/04 00:02:15;;;;;;;0.50;0.40;;;23.10;1.00;;;;;;5136520;27;20542;-73
2022/07/04 00:04:42;;;;;;;0.57;0.50;;;23.00;1.00;;;;;;5135865;27;20539;-75
2022/07/04 00:07:08;;;;;;;0.67;0.40;;;22.90;1.00;;;;;;5136266;27;20487;-75
2022/07/04 00:09:37;;;;;;;0.90;0.43;;;23.00;1.00;;;;;;5136824;27;20483;-75
2022/07/04 00:12:04;;;;;;;0.60;0.40;;;23.10;1.00;;;;;;5136888;27;20487;-75
2022/07/04 00:14:31;;;;;;;0.50;0.50;;;23.10;1.00;;;;;;5136140;27;20530;-74
2022/07/04 00:16:58;;;;;;;0.63;0.40;;;22.90;1.00;;;;;;5136421;27;20937;-75
2022/07/04 00:19:25;;;;;;;0.60;0.50;;;22.80;1.00;;;;;;5137160;27;20906;-75
2022/07/04 00:21:52;;;;;;;0.60;0.53;;;22.80;1.00;;;;;;5136805;28;20491;-75
2022/07/04 00:24:19;;;;;;;0.70;0.40;;;22.80;1.00;;;;;;5137293;27;20899;-75
2022/07/04 00:26:47;;;;;;;0.60;0.43;;;22.80;1.00;;;;;;5137109;27;20444;-76
2022/07/04 00:29:15;;;;;;;0.70;0.60;;;22.70;1.00;;;;;;5139962;27;20902;-75
2022/07/04 00:31:42;;;;;;;1.37;0.50;;;22.70;1.00;;;;;;5140184;27;20753;-75
2022/07/04 00:34:09;;;;;;;2.03;0.60;;;22.70;1.00;;;;;;5140988;27;20530;-75
2022/07/04 00:36:36;;;;;;;0.70;0.50;;;22.70;1.00;;;;;;5139909;27;20909;-74
2022/07/04 00:39:03;;;;;;;0.70;0.50;;;22.70;1.00;;;;;;5140429;27;20964;-74
2022/07/04 00:41:30;;;;;;;0.60;0.40;;;22.80;1.00;;;;;;5140442;27;20467;-74
2022/07/04 00:44:06;;;;;;;0.90;0.50;;;22.70;1.00;;;;;;5139899;27;20542;-75
2022/07/04 00:46:33;;;;;;;0.70;0.50;;;22.60;1.00;;;;;;5140609;27;20483;-74
2022/07/04 00:49:00;;;;;;;1.77;0.50;;;22.50;1.00;;;;;;5140686;27;20475;-75
2022/07/04 00:51:28;;;;;;;0.50;0.40;;;22.50;1.00;;;;;;5139788;27;20487;-75
2022/07/04 00:53:55;;;;;;;0.50;0.40;;;22.50;1.00;;;;;;5139815;27;20581;-74
2022/07/04 00:56:22;;;;;;;1.27;0.40;;;22.50;1.00;;;;;;5141648;27;20922;-74
2022/07/04 00:58:50;;;;;;;1.03;0.50;;;22.40;1.00;;;;;;5142111;27;20487;-74
2022/07/04 01:01:19;;;;;;;0.50;0.40;;;22.30;1.00;;;;;;5141258;27;20519;-75
2022/07/04 01:03:46;;;;;;;0.73;0.60;;;22.40;1.00;;;;;;5141051;27;20494;-75
2022/07/04 01:06:15;;;;;;;0.67;0.50;;;22.50;1.00;;;;;;5141040;27;20448;-75
2022/07/04 01:08:43;;;;;;;0.60;0.47;;;22.40;1.00;;;;;;5140504;27;20733;-75
2022/07/04 01:11:11;;;;;;;0.60;0.47;;;22.40;1.00;;;;;;5139554;27;20475;-75
2022/07/04 01:13:38;;;;;;;0.57;0.50;;;22.40;1.00;;;;;;5138568;27;20479;-75
2022/07/04 01:16:05;;;;;;;1.10;0.50;;;22.40;1.00;;;;;;5138119;27;20444;-73
2022/07/04 01:18:34;;;;;;;0.50;0.40;;;22.50;1.00;;;;;;5139139;27;20554;-74
2022/07/04 01:21:02;;;;;;;1.27;0.50;;;22.40;1.00;;;;;;5138705;27;20498;-74
2022/07/04 01:23:29;;;;;;;0.70;0.50;;;22.30;1.00;;;;;;5138671;27;20546;-75
2022/07/04 01:25:57;;;;;;;4.20;0.50;;;22.20;1.00;;;;;;5139395;27;20793;-74
2022/07/04 01:28:26;;;;;;;0.60;0.40;;;22.20;1.00;;;;;;5140237;27;20542;-75
2022/07/04 01:30:53;;;;;;;5.23;0.60;;;22.20;1.00;;;;;;5139854;27;20451;-74
2022/07/04 01:33:20;;;;;;;0.43;0.40;;;22.20;1.00;;;;;;5139589;27;20574;-74
2022/07/04 01:35:48;;;;;;;0.60;0.43;;;22.20;1.00;;;;;;5139702;27;20443;-74
2022/07/04 01:38:16;;;;;;;0.60;0.47;;;22.20;1.00;;;;;;5139862;27;20554;-74
2022/07/04 01:40:43;;;;;;;0.93;0.50;;;22.10;1.00;;;;;;5139410;27;20448;-75
2022/07/04 01:43:10;;;;;;;1.13;0.50;;;22.10;1.00;;;;;;5139646;27;20550;-75
2022/07/04 01:45:38;;;;;;;0.60;0.50;;;22.20;1.00;;;;;;5139926;27;20532;-75
2022/07/04 01:48:06;;;;;;;0.67;0.50;;;22.30;1.00;;;;;;5140057;27;20543;-75
2022/07/04 01:50:33;;;;;;;1.60;0.50;;;22.20;1.00;;;;;;5139872;27;20534;-74
2022/07/04 01:53:00;;;;;;;0.60;0.50;;;22.10;1.00;;;;;;5139517;27;20537;-75
2022/07/04 01:55:29;;;;;;;0.50;0.40;;;22.00;1.00;;;;;;5139550;27;20530;-74
2022/07/04 01:57:57;;;;;;;1.70;0.60;;;22.00;1.00;;;;;;5139410;27;20539;-75
2022/07/04 02:03:10;;;;;;;0.67;0.50;;;21.90;1.00;;;;;;5139635;27;20423;-74
2022/07/04 02:05:38;;;;;;;0.60;0.50;;;21.90;1.00;;;;;;5139517;27;20930;-74
2022/07/04 02:08:05;;;;;;;0.70;0.50;;;21.90;1.00;;;;;;5139894;27;20739;-74
2022/07/04 02:10:33;;;;;;;0.60;0.50;;;22.00;1.00;;;;;;5139422;27;20487;-74
2022/07/04 02:13:03;;;;;;;0.60;0.50;;;21.90;1.00;;;;;;5138746;27;20541;-74
2022/07/04 02:15:31;;;;;;;0.60;0.50;;;21.80;1.00;;;;;;5139577;27;20451;-75
2022/07/04 02:17:59;;;;;;;1.03;0.47;;;21.80;1.00;;;;;;5138650;27;20550;-74
2022/07/04 02:20:27;;;;;;;0.90;0.60;;;21.70;1.00;;;;;;5138805;27;20479;-75
2022/07/04 02:22:54;;;;;;;0.77;0.50;;;21.40;27.60;;;;;;5139065;27;20546;-74
2022/07/04 02:25:21;;;;;;;0.50;0.40;;;21.40;99.90;;;;;;5139242;27;20745;-75
2022/07/04 02:27:50;;;;;;;0.87;0.40;;;21.30;99.90;;;;;;5138853;27;20515;-75
2022/07/04 02:30:17;;;;;;;0.53;0.50;;;21.40;64.90;;;;;;5138716;27;20918;-74
2022/07/04 02:32:44;;;;;;;0.70;0.50;;;21.50;96.80;;;;;;5138765;27;20578;-75
2022/07/04 02:35:11;;;;;;;0.90;0.53;;;21.40;27.70;;;;;;5138446;27;20915;-74
2022/07/04 02:37:41;;;;;;;0.70;0.40;;;21.30;99.90;;;;;;5138570;27;20452;-74
2022/07/04 02:40:09;;;;;;;0.60;0.47;;;21.20;99.90;;;;;;5138575;27;20482;-74
2022/07/04 02:42:37;;;;;;;1.80;0.50;;;21.30;99.90;;;;;;5138040;27;20487;-74
2022/07/04 02:45:07;;;;;;;0.80;0.40;;;21.30;99.90;;;;;;5138566;27;20535;-74
2022/07/04 02:47:34;;;;;;;0.60;0.50;;;21.40;99.90;;;;;;5138422;27;20827;-74
2022/07/04 02:50:02;;;;;;;0.60;0.50;;;21.40;34.00;;;;;;5137867;27;20454;-74
2022/07/04 02:52:29;;;;;;;0.60;0.50;;;21.30;99.90;;;;;;5136289;27;20554;-74
2022/07/04 02:54:56;;;;;;;1.03;0.50;;;21.30;99.90;;;;;;5136548;27;20447;-74
2022/07/04 02:57:23;;;;;;;1.43;0.50;;;21.30;51.90;;;;;;5136372;27;20815;-74
2022/07/04 02:59:50;;;;;;;0.80;0.40;;;21.20;99.90;;;;;;5136599;27;20530;-74
2022/07/04 03:02:18;;;;;;;1.43;0.40;;;21.10;99.90;;;;;;5135972;27;20502;-74
2022/07/04 03:04:45;;;;;;;1.93;0.50;;;21.20;99.90;;;;;;5137014;27;20530;-74
2022/07/04 03:07:12;;;;;;;0.70;0.40;;;21.10;99.90;;;;;;5137171;27;20448;-74
2022/07/04 03:09:39;;;;;;;0.93;0.50;;;21.20;99.90;;;;;;5137748;27;20451;-74
2022/07/04 03:12:07;;;;;;;1.20;0.50;;;21.20;99.90;;;;;;5137296;27;20488;-74
2022/07/04 03:14:34;;;;;;;0.60;0.40;;;21.20;99.90;;;;;;5136972;27;20482;-74
2022/07/04 03:17:01;;;;;;;3.50;0.50;;;21.10;99.90;;;;;;5133511;27;20816;-73
2022/07/04 03:19:29;;;;;;;1.93;0.50;;;21.10;99.90;;;;;;5133255;27;20890;-74
2022/07/04 03:21:56;;;;;;;0.50;0.40;;;21.10;99.90;;;;;;5138219;27;20534;-74
2022/07/04 03:24:23;;;;;;;0.70;0.57;;;21.00;99.90;;;;;;5137822;27;20460;-74
2022/07/04 03:26:50;;;;;;;0.63;0.50;;;21.00;99.90;;;;;;5135901;27;20808;-74
2022/07/04 03:29:17;;;;;;;0.80;0.50;;;21.00;99.90;;;;;;5131571;27;20553;-74
2022/07/04 03:31:44;;;;;;;0.90;0.40;;;20.80;99.90;;;;;;5136826;27;20501;-74
2022/07/04 03:34:11;;;;;;;0.60;0.40;;;20.80;99.90;;;;;;5129923;27;20570;-74
2022/07/04 03:36:39;;;;;;;0.70;0.50;;;20.70;99.90;;;;;;5136016;27;20530;-74
2022/07/04 03:39:06;;;;;;;0.63;0.50;;;20.70;99.90;;;;;;5136409;27;20946;-74
2022/07/04 03:41:33;;;;;;;0.80;0.50;;;20.60;99.90;;;;;;5136837;27;20527;-74
2022/07/04 03:44:00;;;;;;;2.10;0.50;;;20.60;1.00;;;;;;5137283;27;20447;-74
2022/07/04 03:46:27;;;;;;;0.80;0.50;;;20.60;1.00;;;;;;5137686;27;20487;-74
2022/07/04 03:48:55;;;;;;;0.67;0.47;;;20.60;1.00;;;;;;5137660;27;20542;-74
2022/07/04 03:51:23;;;;;;;0.73;0.47;;;20.40;1.00;;;;;;5137552;27;20472;-74
2022/07/04 03:53:51;;;;;;;2.03;1.23;;;20.60;1.00;;;;;;5136668;27;20484;-74
2022/07/04 03:56:18;;;;;;;0.53;0.40;;;20.70;1.00;;;;;;5136871;27;20525;-73
2022/07/04 03:58:48;;;;;;;0.60;0.50;;;20.80;99.90;;;;;;5136931;27;20538;-74
2022/07/04 04:01:16;;;;;;;0.77;0.60;;;20.80;99.90;;;;;;5136602;27;20440;-74
2022/07/04 04:06:29;;;;;;;1.60;0.40;;;20.80;99.90;;;;;;5139589;27;20415;-74
2022/07/04 04:08:58;;;;;;;0.73;0.50;;;20.50;99.90;;;;;;5140136;27;20498;-73
2022/07/04 04:11:25;;;;;;;0.60;0.40;;;20.50;1.00;;;;;;5139815;27;20487;-74
2022/07/04 04:13:52;;;;;;;0.80;0.50;;;20.40;1.00;;;;;;5140142;27;20479;-74
2022/07/04 04:16:19;;;;;;;0.63;0.40;;;20.60;1.00;;;;;;5140195;27;20514;-74
2022/07/04 04:18:46;;;;;;;0.60;0.40;;;20.70;99.90;;;;;;5140746;27;20930;-74
2022/07/04 04:21:13;;;;;;;0.80;0.50;;;20.50;99.90;;;;;;5141476;27;20443;-74
2022/07/04 04:23:40;;;;;;;0.50;0.40;;;20.20;1.00;;;;;;5141067;27;20830;-72
2022/07/04 04:26:08;;;;;;;0.70;0.40;;;20.30;1.00;;;;;;5140903;27;20832;-74
2022/07/04 04:28:35;;;;;;;0.50;0.40;;;20.30;1.00;;;;;;5140715;27;20587;-74
2022/07/04 04:31:02;;;;;;;0.50;0.40;;;20.40;1.00;;;;;;5140180;27;20455;-74
2022/07/04 04:33:29;;;;;;;0.70;0.50;;;20.50;1.00;;;;;;5140060;27;20581;-74
2022/07/04 04:35:55;;;;;;;0.57;0.40;;;20.60;99.90;;;;;;5140213;27;20442;-73
2022/07/04 04:38:22;;;;;;;0.63;0.47;;;20.50;99.90;;;;;;5139702;27;20486;-75
2022/07/04 04:40:49;;;;;;;0.60;0.40;;;20.30;1.00;;;;;;5139440;27;20527;-73
2022/07/04 04:43:18;;;;;;;0.77;0.60;;;20.30;1.00;;;;;;5139441;27;20859;-73
2022/07/04 04:45:44;;;;;;;0.67;0.40;;;20.10;1.00;;;;;;5140126;27;20530;-75
2022/07/04 04:48:11;;;;;;;1.00;0.47;;;19.90;5.40;;;;;;5140375;27;20546;-74
2022/07/04 04:50:38;;;;;;;0.60;0.50;;;19.70;99.90;;;;;;5140372;27;20501;-74
2022/07/04 04:53:05;;;;;;;0.70;0.50;;;19.60;99.90;;;;;;5140024;27;20942;-74
2022/07/04 04:55:32;;;;;;;1.33;0.50;;;19.60;1.00;;;;;;5140409;27;20820;-74
2022/07/04 04:57:59;;;;;;;0.83;0.50;;;19.50;1.00;;;;;;5140720;27;20947;-74
2022/07/04 05:00:27;;;;;;;0.50;0.40;;;19.60;1.00;;;;;;5140319;27;20498;-74
2022/07/04 05:02:54;;;;;;;1.53;0.50;;;19.60;1.00;;;;;;5139411;27;20505;-74
2022/07/04 05:05:21;;;;;;;0.50;0.40;;;19.70;99.90;;;;;;5139325;27;20526;-74
2022/07/04 05:07:48;;;;;;;0.60;0.40;;;19.70;99.90;;;;;;5139320;27;20934;-74
2022/07/04 05:10:15;;;;;;;0.60;0.50;;;19.70;1.00;;;;;;5138956;27;20522;-74
2022/07/04 05:12:42;;;;;;;1.40;0.40;;;19.90;1.00;;;;;;5139209;27;20875;-74
2022/07/04 05:15:11;;;;;;;0.60;0.50;;;20.10;1.00;;;;;;5138047;27;20544;-74
2022/07/04 05:17:39;;;;;;;0.50;0.40;;;20.30;1.00;;;;;;5138942;27;20831;-74
2022/07/04 05:20:07;;;;;;;0.60;0.40;;;20.40;1.00;;;;;;5137664;27;20535;-74
2022/07/04 05:22:35;;;;;;;0.70;0.50;;;20.60;1.00;;;;;;5135085;27;20826;-74
2022/07/04 05:25:02;;;;;;;0.73;0.50;;;20.60;99.90;;;;;;5133630;27;20538;-74
2022/07/04 05:27:30;;;;;;;0.63;0.40;;;20.50;1.00;;;;;;5133508;27;20819;-74
2022/07/04 05:29:57;;;;;;;0.80;0.40;;;20.30;1.00;;;;;;5133716;27;20820;-74
2022/07/04 05:32:25;;;;;;;0.70;0.40;;;20.40;1.00;;;;;;5134164;27;20786;-74
2022/07/04 05:34:53;;;;;;;0.87;0.50;;;20.50;1.00;;;;;;5135954;27;20499;-74
2022/07/04 05:37:20;;;;;;;1.30;0.50;;;20.50;1.00;;;;;;5130803;27;20484;-75
2022/07/04 05:39:47;;;;;;;0.80;0.40;;;20.50;1.00;;;;;;5137277;27;20447;-75
2022/07/04 05:42:14;;;;;;;0.53;0.40;;;20.30;1.00;;;;;;5137569;27;20444;-75
2022/07/04 05:44:41;;;;;;;2.03;0.50;;;20.20;1.00;;;;;;5137057;27;20911;-74
2022/07/04 05:47:08;;;;;;;0.73;0.50;;;20.10;1.00;;;;;;5138514;27;20543;-74
2022/07/04 05:49:35;;;;;;;1.00;0.50;;;20.10;1.00;;;;;;5136069;27;21091;-74
2022/07/04 05:52:03;;;;;;;1.30;0.60;;;20.30;1.00;;;;;;5133966;27;21199;-75
2022/07/04 05:54:30;;;;;;;0.60;0.40;;;20.40;1.00;;;;;;5133665;27;20558;-75
2022/07/04 05:56:57;;;;;;;1.37;0.43;;;20.50;1.00;;;;;;5132201;27;20526;-74
2022/07/04 05:59:24;;;;;;;1.67;0.40;;;20.80;99.90;;;;;;5121550;27;20542;-74
2022/07/04 06:01:51;;;;;;;1.17;0.50;;;20.90;99.90;;;;;;5127518;27;20949;-74
2022/07/04 06:04:18;;;;;;;0.73;0.40;;;21.00;99.90;;;;;;5136273;27;20508;-76
2022/07/04 06:06:45;;;;;;;0.90;0.50;;;21.30;99.90;;;;;;5131269;27;20471;-76
2022/07/04 06:09:13;;;;;;;1.33;0.43;;;21.50;98.00;;;;;;5120575;27;20472;-76
2022/07/04 06:11:40;;;;;;;0.60;0.40;;;21.70;6.40;;;;;;5126978;27;20539;-76
2022/07/04 06:14:07;;;;;;;0.57;0.40;;;21.40;1.00;;;;;;5138245;27;20479;-76
2022/07/04 06:16:34;;;;;;;1.07;0.50;;;21.20;1.60;;;;;;5129000;27;20544;-74
2022/07/04 06:19:01;;;;;;;0.80;0.40;;;21.20;92.20;;;;;;5136812;27;20531;-76
2022/07/04 06:21:28;;;;;;;0.70;0.40;;;21.00;30.70;;;;;;5123522;27;20832;-75
2022/07/04 06:23:55;;;;;;;0.70;0.50;;;21.10;91.20;;;;;;5134791;27;20471;-77
2022/07/04 06:26:23;;;;;;;0.60;0.40;;;21.30;78.80;;;;;;5136411;27;20539;-77
2022/07/04 06:28:50;;;;;;;1.10;0.43;;;21.50;38.70;;;;;;5134759;27;20534;-75
2022/07/04 06:31:17;;;;;;;2.73;0.50;;;21.90;1.00;;;;;;5137695;27;20472;-75
2022/07/04 06:36:30;;;;;;;0.57;0.40;;;22.00;1.00;;;;;;5135437;27;20435;-77
2022/07/04 06:38:57;;;;;;;0.50;0.40;;;22.00;1.00;;;;;;5119867;27;20535;-74
2022/07/04 06:41:25;;;;;;;1.10;0.40;;;22.10;1.00;;;;;;5135986;27;20447;-73
2022/07/04 06:43:52;;;;;;;2.60;0.50;;;22.30;1.00;;;;;;5135648;27;20452;-72
2022/07/04 06:46:19;;;;;;;0.80;0.50;;;22.50;1.00;;;;;;5136441;27;20795;-73
2022/07/04 06:48:46;;;;;;;1.43;0.50;;;22.60;1.00;;;;;;5135673;27;20456;-74
2022/07/04 06:51:14;;;;;;;1.03;0.50;;;22.60;1.00;;;;;;5134430;27;20475;-72
2022/07/04 06:53:45;;;;;;;0.50;0.40;;;22.40;1.00;;;;;;5132068;27;20468;-73
2022/07/04 06:56:12;;;;;;;0.70;0.50;;;22.30;1.00;;;;;;5131672;27;20440;-74
2022/07/04 06:58:41;;;;;;;0.70;0.50;;;22.50;1.00;;;;;;5130647;27;20451;-72
2022/07/04 07:01:08;;;;;;;0.77;0.60;;;22.40;1.00;;;;;;5141856;27;20527;-73
2022/07/04 07:03:35;;;;;;;1.63;0.60;;;22.50;1.00;;;;;;5132146;27;20809;-73
2022/07/04 07:06:02;;;;;;;0.70;0.70;;;22.70;1.00;;;;;;5125583;27;20439;-71
2022/07/04 07:08:30;;;;;;;1.50;0.73;;;22.60;1.00;;;;;;5133555;27;21014;-73
2022/07/04 07:10:57;;;;;;;0.70;0.43;;;22.70;1.00;;;;;;5126809;27;20481;-72
2022/07/04 07:13:24;;;;;;;1.20;0.50;;;22.60;1.00;;;;;;5128739;27;20437;-72
2022/07/04 07:15:52;;;;;;;0.90;0.60;;;22.60;1.00;;;;;;5134075;27;20461;-74
2022/07/04 07:18:19;;;;;;;0.80;0.50;;;22.90;1.00;;;;;;5129252;27;20289;-74
2022/07/04 07:20:46;;;;;;;1.10;0.70;;;23.10;1.00;;;;;;5133587;27;20540;-74
2022/07/04 07:23:13;;;;;;;1.03;0.70;;;23.20;1.00;;;;;;5134583;27;20994;-74
2022/07/04 07:25:40;;;;;;;2.20;0.50;;;23.30;1.00;;;;;;5134616;27;20439;-75
2022/07/04 07:28:07;;;;;;;0.80;0.57;;;23.00;1.00;;;;;;5135797;27;20447;-73
2022/07/04 07:30:34;;;;;;;2.07;0.60;;;22.90;1.00;;;;;;5127075;27;21087;-74
2022/07/04 07:33:03;;;;;;;0.57;0.40;;;23.00;1.00;;;;;;5118841;27;20463;-74
2022/07/04 07:35:30;;;;;;;0.50;0.40;;;23.00;1.00;;;;;;5133538;27;20841;-74
2022/07/04 07:37:57;;;;;;;0.50;0.40;;;23.20;1.00;;;;;;5135356;27;20536;-73
2022/07/04 07:40:24;;;;;;;0.93;0.43;;;23.30;1.00;;;;;;5135896;27;20475;-73
2022/07/04 07:42:52;;;;;;;0.97;0.47;;;23.00;1.00;;;;;;5134817;27;20463;-74
2022/07/04 07:45:19;;;;;;;0.73;0.60;;;23.20;1.00;;;;;;5101113;28;20514;-74
2022/07/04 07:47:46;;;;;;;1.10;0.50;;;23.20;1.00;;;;;;5113605;28;20560;-74
2022/07/04 07:50:14;;;;;;;0.97;0.50;;;23.20;1.00;;;;;;5121431;27;20483;-74
2022/07/04 07:52:41;;;;;;;0.70;0.50;;;23.20;1.00;;;;;;5128060;27;20496;-75
2022/07/04 07:55:09;;;;;;;1.00;0.60;;;23.30;1.00;;;;;;5125854;28;20445;-78
2022/07/04 07:57:36;;;;;;;1.43;0.40;;;23.60;1.00;;;;;;5135368;28;20618;-75
2022/07/04 08:00:05;;;;;;;0.70;0.50;;;23.60;1.00;;;;;;5128501;28;20444;-74
2022/07/04 08:05:17;;;;;;;0.60;0.40;;;23.50;1.00;;;;;;5135622;28;20624;-77
2022/07/04 08:07:45;;;;;;;1.37;0.60;;;23.40;1.00;;;;;;5124331;28;20551;-76
2022/07/04 08:10:12;;;;;;;0.90;0.60;;;23.50;1.00;;;;;;5134502;28;20526;-77
2022/07/04 08:12:39;;;;;;;1.13;0.60;;;23.40;1.00;;;;;;5123237;28;20444;-77
2022/07/04 08:15:07;;;;;;;0.77;0.50;;;23.50;1.00;;;;;;5134693;27;20472;-78
2022/07/04 08:17:34;;;;;;;0.80;0.80;;;23.30;1.00;;;;;;5135242;27;20483;-76
2022/07/04 08:20:02;;;;;;;0.60;0.50;;;23.50;1.00;;;;;;5136147;27;20455;-76
2022/07/04 08:22:30;;;;;;;0.70;0.57;;;23.50;1.00;;;;;;5135596;27;20461;-76
2022/07/04 08:24:57;;;;;;;0.80;0.50;;;23.50;1.00;;;;;;5130954;27;20522;-76
2022/07/04 08:27:30;;;;;;;1.57;0.60;;;23.60;1.00;;;;;;5124727;28;21086;-73
2022/07/04 08:29:57;;;;;;;0.60;0.47;;;23.70;1.00;;;;;;5125373;28;20522;-75
2022/07/04 08:32:25;;;;;;;0.90;0.60;;;23.50;1.00;;;;;;5136372;27;20456;-75
2022/07/04 08:34:54;;;;;;;0.80;0.50;;;23.40;1.00;;;;;;5136322;28;20914;-75
2022/07/04 08:37:23;;;;;;;1.77;0.60;;;23.50;1.00;;;;;;5136600;28;20902;-75
2022/07/04 08:39:52;;;;;;;0.80;0.40;;;23.60;1.00;;;;;;5134861;28;20462;-75
2022/07/04 08:42:21;;;;;;;0.70;0.50;;;23.70;1.00;;;;;;5132728;27;20475;-74
2022/07/04 08:44:50;;;;;;;0.60;0.50;;;23.50;1.00;;;;;;5134518;27;20448;-75
2022/07/04 08:47:19;;;;;;;0.90;0.40;;;23.60;1.00;;;;;;5133608;27;20902;-75
2022/07/04 08:49:55;;;;;;;0.90;0.60;;;23.80;1.00;;;;;;5122349;27;20598;-75
2022/07/04 08:52:33;;;;;;;1.10;0.70;;;23.80;1.00;;;;;;5098631;28;20509;-75
2022/07/04 09:00:37;;;;;;;0.63;0.50;;;24.00;1.00;;;;;;5135759;27;20455;-75
2022/07/04 09:03:06;;;;;;;0.70;0.50;;;23.90;1.00;;;;;;5135042;27;21053;-75
2022/07/04 09:05:38;;;;;;;0.80;0.60;;;24.00;1.00;;;;;;5134515;27;20501;-74
2022/07/04 09:08:20;;;;;;;0.67;0.50;;;24.10;1.00;;;;;;5116712;27;20454;-75
2022/07/04 09:11:01;;;;;;;1.00;0.60;;;24.10;1.00;;;;;;5135594;27;20505;-75
2022/07/04 09:13:28;;;;;;;2.70;0.70;;;24.10;1.00;;;;;;5116714;27;20458;-75
2022/07/04 09:15:57;;;;;;;1.67;0.60;;;24.20;1.00;;;;;;5117198;27;20555;-74
2022/07/04 09:18:26;;;;;;;0.80;0.50;;;24.30;1.00;;;;;;5136260;27;20497;-74
2022/07/04 09:20:54;;;;;;;0.90;0.70;;;24.40;1.00;;;;;;5136953;27;20428;-75
2022/07/04 09:23:24;;;;;;;0.70;0.60;;;24.10;1.00;;;;;;5136764;27;20827;-75
2022/07/04 09:26:09;;;;;;;1.00;0.60;;;24.10;1.00;;;;;;5120513;27;20476;-74
2022/07/04 09:28:40;;;;;;;1.13;1.00;;;23.90;1.00;;;;;;5137991;27;20548;-74
2022/07/04 09:31:18;;;;;;;0.60;0.50;;;23.90;1.00;;;;;;5137573;27;20448;-74
2022/07/04 09:33:51;;;;;;;0.80;0.53;;;24.20;1.00;;;;;;5138371;27;20883;-75
2022/07/04 09:36:20;;;;;;;0.80;0.50;;;24.40;1.00;;;;;;5139327;27;20491;-75
2022/07/04 09:39:06;;;;;;;0.70;0.60;;;24.20;1.00;;;;;;5139579;27;20899;-75
2022/07/04 09:41:51;;;;;;;0.60;0.50;;;24.20;1.00;;;;;;5138175;27;20443;-76
2022/07/04 09:44:18;;;;;;;0.70;0.60;;;24.20;1.00;;;;;;5138865;27;20448;-75
2022/07/04 09:46:45;;;;;;;1.00;0.70;;;24.50;1.00;;;;;;5137077;27;20448;-74
2022/07/04 09:49:12;;;;;;;0.60;0.50;;;24.80;1.00;;;;;;5138214;27;20451;-75
2022/07/04 09:51:42;;;;;;;0.70;0.60;;;25.10;1.00;;;;;;5138067;27;20452;-76
2022/07/04 09:54:25;;;;;;;1.27;0.50;;;25.30;1.00;;;;;;5138283;27;20476;-74
2022/07/04 09:56:58;;;;;;;1.30;0.70;;;25.30;1.00;;;;;;5137833;27;20440;-73
2022/07/04 09:59:27;;;;;;;0.77;0.60;;;25.10;1.00;;;;;;5137210;27;20424;-76
2022/07/04 10:02:07;;;;;;;0.97;0.70;;;25.00;1.00;;;;;;5136693;27;20452;-74
2022/07/04 10:04:47;;;;;;;3.20;0.60;;;25.00;1.00;;;;;;5135554;27;20438;-74
2022/07/04 10:07:31;;;;;;;0.70;0.60;;;25.20;1.00;;;;;;5135125;27;20497;-77
2022/07/04 10:09:58;;;;;;;1.23;0.60;;;25.60;1.00;;;;;;5131940;27;20504;-75
2022/07/04 10:12:30;;;;;;;1.70;0.60;;;26.00;1.00;;;;;;5136201;27;20460;-73
2022/07/04 10:14:57;;;;;;;0.80;0.67;;;26.00;1.00;;;;;;5135053;27;21021;-72
2022/07/04 10:17:27;;;;;;;1.00;0.60;;;26.10;1.00;;;;;;5142219;27;20545;-73
2022/07/04 10:19:55;;;;;;;0.67;0.50;;;26.00;1.00;;;;;;5146781;27;20490;-73
2022/07/04 10:22:24;;;;;;;0.70;0.60;;;26.40;1.00;;;;;;5116146;28;20467;-73
2022/07/04 10:24:52;;;;;;;0.70;0.50;;;26.40;1.00;;;;;;5115546;28;21103;-72
2022/07/04 10:27:19;;;;;;;0.67;0.50;;;26.60;1.00;;;;;;5115652;28;20484;-73
2022/07/04 10:29:47;;;;;;;0.70;0.50;;;26.70;1.00;;;;;;5115527;28;20480;-73
2022/07/04 10:32:14;;;;;;;0.77;0.67;;;26.80;1.00;;;;;;5115214;28;20484;-73
2022/07/04 10:34:42;;;;;;;0.97;0.60;;;27.20;1.00;;;;;;5116019;28;20540;-75
2022/07/04 10:37:09;;;;;;;1.33;0.50;;;27.20;1.00;;;;;;5114564;28;20511;-73
2022/07/04 10:39:36;;;;;;;0.53;0.40;;;27.50;1.00;;;;;;5114877;28;20821;-74
2022/07/04 10:42:03;;;;;;;0.80;0.60;;;27.50;1.00;;;;;;5116275;28;20495;-75
2022/07/04 10:44:37;;;;;;;0.50;0.37;;;27.90;1.00;;;;;;5116309;28;20444;-74
2022/07/04 10:47:06;;;;;;;0.60;0.50;;;27.70;1.00;;;;;;5115985;28;20498;-73
2022/07/04 10:49:35;;;;;;;0.70;0.60;;;28.00;1.00;;;;;;5115753;28;20468;-74
2022/07/04 10:52:12;;;;;;;3.67;0.80;;;28.30;1.00;;;;;;5115367;28;20595;-74
2022/07/04 10:54:44;;;;;;;0.87;0.50;;;28.40;1.00;;;;;;5124060;27;20520;-71
2022/07/04 10:57:17;;;;;;;0.80;0.67;;;28.20;1.00;;;;;;5136221;27;20749;-74
2022/07/04 11:00:07;;;;;;;0.60;0.50;;;28.50;1.00;;;;;;5134013;27;20439;-75
2022/07/04 11:02:36;;;;;;;0.90;0.60;;;28.60;1.00;;;;;;5136117;27;20483;-75
2022/07/04 11:05:05;;;;;;;1.50;0.60;;;28.40;1.00;;;;;;5135391;27;20443;-74
2022/07/04 11:07:59;;;;;;;0.90;0.70;;;28.50;1.00;;;;;;5134937;27;20483;-74
2022/07/04 11:10:27;;;;;;;0.90;0.70;;;28.60;1.00;;;;;;5136089;27;20509;-72
2022/07/04 11:13:08;;;;;;;0.70;0.50;;;28.40;1.00;;;;;;5136749;27;20550;-72
2022/07/04 11:16:07;;;;;;;0.80;0.60;;;28.30;1.00;;;;;;5137291;27;20964;-74
2022/07/04 11:18:48;;;;;;;0.60;0.50;;;28.50;1.00;;;;;;5118848;27;20758;-73
2022/07/04 11:21:23;;;;;;;0.73;0.60;;;28.70;1.00;;;;;;5135797;27;20921;-74
2022/07/04 11:23:54;;;;;;;1.00;0.60;;;28.70;1.00;;;;;;5137404;27;20474;-74
2022/07/04 11:26:23;;;;;;;1.00;0.70;;;28.80;1.00;;;;;;5138122;27;20501;-76
2022/07/04 11:28:51;;;;;;;0.77;0.60;;;29.00;1.00;;;;;;5137308;27;20494;-75
2022/07/04 11:31:19;;;;;;;0.70;0.60;;;29.00;1.00;;;;;;5137499;27;20907;-76
2022/07/04 11:33:55;;;;;;;0.60;0.50;;;28.90;1.00;;;;;;5137315;27;20456;-75
2022/07/04 11:36:22;;;;;;;0.70;0.60;;;29.40;1.00;;;;;;5137309;27;20578;-76
2022/07/04 11:38:53;;;;;;;0.50;0.50;;;29.80;1.00;;;;;;5137505;27;20444;-74
2022/07/04 11:46:50;;;;;;;0.90;0.60;;;29.90;1.00;;;;;;5126803;27;20422;-76
2022/07/04 11:49:20;;;;;;;1.40;0.77;;;30.10;1.00;;;;;;5116520;27;20448;-75
2022/07/04 11:51:49;;;;;;;0.90;0.70;;;30.20;1.00;;;;;;5097483;28;20822;-75
2022/07/04 11:54:18;;;;;;;1.00;0.60;;;30.10;1.00;;;;;;5115491;28;20518;-76
2022/07/04 11:56:46;;;;;;;1.23;0.60;;;29.90;1.00;;;;;;5116266;28;20481;-76
2022/07/04 11:59:15;;;;;;;0.90;0.77;;;30.00;1.00;;;;;;5114496;28;20448;-76
2022/07/04 12:01:44;;;;;;;0.63;0.60;;;29.40;1.00;;;;;;5096922;28;21032;-75
2022/07/04 12:04:16;;;;;;;0.50;0.50;;;29.20;1.00;;;;;;5115229;28;20425;-75
2022/07/04 12:06:49;;;;;;;0.87;0.57;;;29.60;1.00;;;;;;5114881;28;20441;-76
2022/07/04 12:09:17;;;;;;;0.60;0.50;;;29.80;1.00;;;;;;5114792;28;20444;-76
2022/07/04 12:11:58;;;;;;;1.33;1.23;;;30.40;1.00;;;;;;5115748;28;20491;-73
2022/07/04 12:14:26;;;;;;;0.77;0.60;;;30.70;1.00;;;;;;5114895;28;20444;-75
2022/07/04 12:17:12;;;;;;;0.80;0.60;;;30.60;1.00;;;;;;5113826;28;20477;-74
2022/07/04 12:19:52;;;;;;;0.80;0.53;;;31.10;1.00;;;;;;5114033;28;20444;-73
2022/07/04 12:22:38;;;;;;;1.63;0.60;;;30.80;1.00;;;;;;5114750;28;20456;-72
2022/07/04 12:25:10;;;;;;;0.93;0.60;;;30.30;1.00;;;;;;5117157;28;20511;-75
2022/07/04 12:27:37;;;;;;;0.93;0.60;;;30.10;1.00;;;;;;5118352;28;20460;-74
2022/07/04 12:30:06;;;;;;;0.80;0.50;;;30.50;1.00;;;;;;5118921;28;20437;-73
2022/07/04 12:32:47;;;;;;;0.60;0.60;;;30.80;1.00;;;;;;5119512;28;20476;-74
2022/07/04 12:35:33;;;;;;;0.70;0.60;;;31.00;1.00;;;;;;5118307;28;20452;-74
2022/07/04 12:38:06;;;;;;;0.80;0.60;;;31.20;1.00;;;;;;5118099;28;20811;-74
2022/07/04 12:40:34;;;;;;;0.70;0.50;;;31.50;1.00;;;;;;5118167;28;20513;-74
2022/07/04 12:43:02;;;;;;;0.77;0.50;;;31.40;1.00;;;;;;5108510;28;20911;-73
2022/07/04 12:45:43;;;;;;;0.50;0.50;;;31.50;1.00;;;;;;5118367;28;20557;-72
2022/07/04 12:48:19;;;;;;;0.50;0.50;;;31.40;1.00;;;;;;5122748;27;20455;-73
2022/07/04 12:50:47;;;;;;;1.07;0.50;;;30.80;1.00;;;;;;5136694;27;20454;-73
2022/07/04 12:53:16;;;;;;;0.87;0.50;;;30.50;1.00;;;;;;5137327;27;20502;-73
2022/07/04 12:55:43;;;;;;;0.80;0.60;;;29.80;1.00;;;;;;5136753;27;20574;-73
2022/07/04 12:58:11;;;;;;;2.60;2.40;;;29.50;1.00;;;;;;5135610;27;20538;-73
2022/07/04 13:00:39;;;;;;;1.10;0.93;;;29.40;1.00;;;;;;5137148;27;20440;-73
2022/07/04 13:03:06;;;;;;;0.50;0.50;;;29.00;1.00;;;;;;5137672;27;20448;-74
2022/07/04 13:05:35;;;;;;;0.73;0.57;;;29.60;1.00;;;;;;5139187;27;21037;-73
2022/07/04 13:08:02;;;;;;;0.70;0.60;;;30.00;1.00;;;;;;5138018;27;20462;-73
2022/07/04 13:10:32;;;;;;;0.60;0.50;;;30.20;1.00;;;;;;5136699;27;20471;-73
2022/07/04 13:12:59;;;;;;;1.00;0.50;;;30.40;1.00;;;;;;5137414;27;20456;-74
2022/07/04 13:15:26;;;;;;;1.40;0.70;;;29.90;1.00;;;;;;5136005;27;20455;-74
2022/07/04 13:17:53;;;;;;;0.60;0.60;;;30.00;1.00;;;;;;5137134;27;20452;-75
2022/07/04 13:20:20;;;;;;;0.90;0.50;;;30.20;1.00;;;;;;5130845;27;20544;-74
2022/07/04 13:22:47;;;;;;;0.70;0.50;;;30.30;1.00;;;;;;5127481;27;20445;-75
2022/07/04 13:25:14;;;;;;;0.60;0.50;;;30.40;1.00;;;;;;5138732;27;20519;-75
2022/07/04 13:27:42;;;;;;;0.90;0.60;;;30.10;1.00;;;;;;5138432;27;20539;-75